createdAt,value
2019-05-18T00:01:16.598Z,28.30
2019-05-18T00:03:44.968Z,29.40
2019-05-18T00:06:13.599Z,27.37
2019-05-18T00:08:41.868Z,26.40
2019-05-18T00:11:10.202Z,28.40
2019-05-18T00:13:38.478Z,28.77
2019-05-18T00:16:06.812Z,28.87
2019-05-18T00:18:35.091Z,27.57
2019-05-18T00:21:03.467Z,28.77
2019-05-18T00:23:31.747Z,27.83
2019-05-18T00:26:00.033Z,29.50
2019-05-18T00:28:28.299Z,28.37
2019-05-18T00:30:56.558Z,30.47
2019-05-18T00:33:24.870Z,29.40
2019-05-18T00:35:53.300Z,29.00
2019-05-18T00:38:21.698Z,29.87
2019-05-18T00:40:49.992Z,30.70
2019-05-18T00:43:18.255Z,28.70
2019-05-18T00:45:46.523Z,30.90
2019-05-18T00:48:14.806Z,30.77
2019-05-18T00:50:43.579Z,30.53
2019-05-18T00:53:11.856Z,30.33
2019-05-18T00:55:40.461Z,30.83
2019-05-18T00:58:10.149Z,30.37
2019-05-18T01:00:38.414Z,28.63
2019-05-18T01:03:06.698Z,31.33
2019-05-18T01:05:37.878Z,32.50
2019-05-18T01:08:04.961Z,29.70
2019-05-18T01:10:33.241Z,30.20
2019-05-18T01:13:01.498Z,30.83
2019-05-18T01:15:29.771Z,31.73
2019-05-18T01:18:01.856Z,30.07
2019-05-18T01:20:28.160Z,32.17
2019-05-18T01:22:56.735Z,31.77
2019-05-18T01:25:25.030Z,30.90
2019-05-18T01:27:53.304Z,30.70
2019-05-18T01:30:21.563Z,31.77
2019-05-18T01:32:49.847Z,31.20
2019-05-18T01:35:18.108Z,33.37
2019-05-18T01:37:46.455Z,31.40
2019-05-18T01:40:14.785Z,31.83
2019-05-18T01:42:43.093Z,32.37
2019-05-18T01:45:16.874Z,32.43
2019-05-18T01:47:42.703Z,31.57
2019-05-18T01:50:10.968Z,31.77
2019-05-18T01:52:39.557Z,33.30
2019-05-18T01:55:08.229Z,32.63
2019-05-18T01:57:36.510Z,31.37
2019-05-18T02:00:08.176Z,32.40
2019-05-18T02:02:36.620Z,31.63
2019-05-18T02:05:07.573Z,31.80
2019-05-18T02:07:35.895Z,30.33
2019-05-18T02:10:05.324Z,32.80
2019-05-18T02:12:33.596Z,31.00
2019-05-18T02:15:01.966Z,33.07
2019-05-18T02:17:30.653Z,33.57
2019-05-18T02:19:58.912Z,32.60
2019-05-18T02:22:27.177Z,31.93
2019-05-18T02:24:55.507Z,32.23
2019-05-18T02:27:23.815Z,32.13
2019-05-18T02:29:52.080Z,33.00
2019-05-18T02:32:20.365Z,31.90
2019-05-18T02:34:48.639Z,31.57
2019-05-18T02:37:16.899Z,31.57
2019-05-18T02:39:45.205Z,31.53
2019-05-18T02:42:13.532Z,33.13
2019-05-18T02:44:41.859Z,33.40
2019-05-18T02:47:11.561Z,30.07
2019-05-18T02:49:39.827Z,32.43
2019-05-18T02:52:08.225Z,32.27
2019-05-18T02:54:36.508Z,34.57
2019-05-18T02:57:04.764Z,32.83
2019-05-18T02:59:33.422Z,33.87
2019-05-18T03:02:03.344Z,32.67
2019-05-18T03:04:31.606Z,31.57
2019-05-18T03:06:59.870Z,31.73
2019-05-18T03:09:28.244Z,31.97
2019-05-18T03:11:56.514Z,32.43
2019-05-18T03:14:24.840Z,33.20
2019-05-18T03:16:53.129Z,32.57
2019-05-18T03:19:21.461Z,33.00
2019-05-18T03:21:49.730Z,32.27
2019-05-18T03:24:18.016Z,31.83
2019-05-18T03:26:46.279Z,32.50
2019-05-18T03:29:14.613Z,33.00
2019-05-18T03:31:42.931Z,33.20
2019-05-18T03:34:11.274Z,32.67
2019-05-18T03:36:39.599Z,32.77
2019-05-18T03:39:07.918Z,33.03
2019-05-18T03:41:36.211Z,32.87
2019-05-18T03:44:04.468Z,32.63
2019-05-18T03:46:32.751Z,33.00
2019-05-18T03:49:01.086Z,32.10
2019-05-18T03:51:29.333Z,33.97
2019-05-18T03:53:57.610Z,34.07
2019-05-18T03:56:25.870Z,33.13
2019-05-18T03:58:54.135Z,32.47
2019-05-18T04:01:22.487Z,34.20
2019-05-18T04:03:50.777Z,33.33
2019-05-18T04:06:19.047Z,35.43
2019-05-18T04:08:47.400Z,33.87
2019-05-18T04:11:15.657Z,33.33
2019-05-18T04:13:43.932Z,33.40
2019-05-18T04:16:12.372Z,33.93
2019-05-18T04:18:40.641Z,35.40
2019-05-18T04:21:08.911Z,36.07
2019-05-18T04:23:37.262Z,35.27
2019-05-18T04:26:05.530Z,35.63
2019-05-18T04:28:33.788Z,35.67
2019-05-18T04:31:02.081Z,34.73
2019-05-18T04:33:30.420Z,35.93
2019-05-18T04:35:58.764Z,34.60
2019-05-18T04:38:27.149Z,35.90
2019-05-18T04:40:55.463Z,36.60
2019-05-18T04:43:23.735Z,35.97
2019-05-18T04:45:52.094Z,37.73
2019-05-18T04:48:20.364Z,35.57
2019-05-18T04:50:48.719Z,36.73
2019-05-18T04:53:18.669Z,35.80
2019-05-18T04:55:47.024Z,35.13
2019-05-18T04:58:15.372Z,39.27
2019-05-18T05:00:43.662Z,36.97
2019-05-18T05:03:11.931Z,37.87
2019-05-18T05:05:40.206Z,37.20
2019-05-18T05:08:27.916Z,36.03
2019-05-18T05:10:56.179Z,37.27
2019-05-18T05:13:24.449Z,37.40
2019-05-18T05:15:53.391Z,37.07
2019-05-18T05:18:23.367Z,36.40
2019-05-18T05:20:53.264Z,36.20
2019-05-18T05:23:21.557Z,36.27
2019-05-18T05:25:51.517Z,36.07
2019-05-18T05:28:19.786Z,39.78
2019-05-18T05:30:48.146Z,35.77
2019-05-18T05:33:16.437Z,37.37
2019-05-18T05:35:44.759Z,39.53
2019-05-18T05:38:13.124Z,39.83
2019-05-18T05:40:41.387Z,37.83
2019-05-18T05:43:09.656Z,39.70
2019-05-18T05:45:37.947Z,38.47
2019-05-18T05:48:06.211Z,39.13
2019-05-18T05:50:36.342Z,40.00
2019-05-18T05:53:04.552Z,38.10
2019-05-18T05:55:32.823Z,38.27
2019-05-18T05:58:01.094Z,37.00
2019-05-18T06:00:29.474Z,40.80
2019-05-18T06:02:57.772Z,39.93
2019-05-18T06:05:26.033Z,39.90
2019-05-18T06:07:54.330Z,40.73
2019-05-18T06:10:22.634Z,40.43
2019-05-18T06:12:50.904Z,39.00
2019-05-18T06:15:21.505Z,40.17
2019-05-18T06:17:49.778Z,40.57
2019-05-18T06:20:18.049Z,40.47
2019-05-18T06:22:46.392Z,40.90
2019-05-18T06:25:14.686Z,39.57
2019-05-18T06:27:43.868Z,39.87
2019-05-18T06:30:12.792Z,38.77
2019-05-18T06:32:41.163Z,41.10
2019-05-18T06:35:11.070Z,40.37
2019-05-18T06:37:39.675Z,39.17
2019-05-18T06:40:08.384Z,40.90
2019-05-18T06:42:36.729Z,40.47
2019-05-18T06:45:09.766Z,38.77
2019-05-18T06:47:38.023Z,41.40
2019-05-18T06:50:11.237Z,47.58
2019-05-18T06:52:38.010Z,41.03
2019-05-18T06:55:09.082Z,42.10
2019-05-18T06:57:37.356Z,42.73
2019-05-18T07:00:14.543Z,42.33
2019-05-18T07:02:42.940Z,43.97
2019-05-18T07:05:11.222Z,39.90
2019-05-18T07:07:39.576Z,40.60
2019-05-18T07:10:08.580Z,41.90
2019-05-18T07:12:36.947Z,42.20
2019-05-18T07:15:07.577Z,41.90
2019-05-18T07:17:36.281Z,38.13
2019-05-18T07:20:05.491Z,39.87
2019-05-18T07:22:33.904Z,40.70
2019-05-18T07:25:02.220Z,40.07
2019-05-18T07:27:30.573Z,40.30
2019-05-18T07:29:58.858Z,38.90
2019-05-18T07:32:27.131Z,41.37
2019-05-18T07:34:55.399Z,38.30
2019-05-18T07:37:23.705Z,39.03
2019-05-18T07:39:52.041Z,38.73
2019-05-18T07:42:20.300Z,37.40
2019-05-18T07:44:48.884Z,36.50
2019-05-18T07:47:17.511Z,37.73
2019-05-18T07:49:45.793Z,37.37
2019-05-18T07:52:17.120Z,36.63
2019-05-18T07:54:44.128Z,36.20
2019-05-18T07:57:12.400Z,37.20
2019-05-18T07:59:40.688Z,36.47
2019-05-18T08:02:08.940Z,36.63
2019-05-18T08:04:39.777Z,36.07
2019-05-18T08:07:08.156Z,35.30
2019-05-18T08:09:36.432Z,36.27
2019-05-18T08:12:04.699Z,35.33
2019-05-18T08:14:32.985Z,32.87
2019-05-18T08:17:04.237Z,33.90
2019-05-18T08:19:32.497Z,35.20
2019-05-18T08:22:01.577Z,34.63
2019-05-18T08:24:29.838Z,32.63
2019-05-18T08:26:58.183Z,32.20
2019-05-18T08:29:27.440Z,32.40
2019-05-18T08:31:55.724Z,33.10
2019-05-18T08:34:24.401Z,31.53
2019-05-18T08:36:52.673Z,29.37
2019-05-18T08:39:22.081Z,28.63
2019-05-18T08:41:50.357Z,27.93
2019-05-18T08:44:18.636Z,27.53
2019-05-18T08:46:46.911Z,28.47
2019-05-18T08:49:15.211Z,28.50
2019-05-18T08:51:43.540Z,26.57
2019-05-18T08:54:11.809Z,26.03
2019-05-18T08:56:40.193Z,25.33
2019-05-18T08:59:08.623Z,25.23
2019-05-18T09:01:36.884Z,25.13
2019-05-18T09:04:05.145Z,23.97
2019-05-18T09:06:33.545Z,23.27
2019-05-18T09:09:01.821Z,23.47
2019-05-18T09:11:30.140Z,24.60
2019-05-18T09:13:58.460Z,25.17
2019-05-18T09:16:26.880Z,25.00
2019-05-18T09:18:56.824Z,25.67
2019-05-18T09:21:25.250Z,25.13
2019-05-18T09:23:53.524Z,22.43
2019-05-18T09:26:21.809Z,22.10
2019-05-18T09:28:50.598Z,21.10
2019-05-18T09:31:19.570Z,21.87
2019-05-18T09:33:47.898Z,20.80
2019-05-18T09:36:16.184Z,21.23
2019-05-18T09:38:44.448Z,21.97
2019-05-18T09:41:12.707Z,20.87
2019-05-18T09:43:40.988Z,20.10
2019-05-18T09:46:09.280Z,21.67
2019-05-18T09:48:37.936Z,22.70
2019-05-18T09:51:06.229Z,22.60
2019-05-18T09:53:34.494Z,21.87
2019-05-18T09:56:02.791Z,22.37
2019-05-18T09:58:31.173Z,22.97
2019-05-18T10:00:59.484Z,22.93
2019-05-18T10:03:27.768Z,21.93
2019-05-18T10:05:56.046Z,22.03
2019-05-18T10:08:24.311Z,21.23
2019-05-18T10:10:52.655Z,18.97
2019-05-18T10:13:20.931Z,20.77
2019-05-18T10:15:49.200Z,22.37
2019-05-18T10:18:17.490Z,21.93
2019-05-18T10:20:45.863Z,22.13
2019-05-18T10:23:14.164Z,22.07
2019-05-18T10:25:42.472Z,21.47
2019-05-18T10:28:10.756Z,22.53
2019-05-18T10:30:39.021Z,20.47
2019-05-18T10:33:07.280Z,20.97
2019-05-18T10:35:35.582Z,20.70
2019-05-18T10:38:03.987Z,20.33
2019-05-18T10:40:32.275Z,18.33
2019-05-18T10:43:00.616Z,20.50
2019-05-18T10:45:28.881Z,18.77
2019-05-18T10:47:57.316Z,19.97
2019-05-18T10:50:25.650Z,21.83
2019-05-18T10:52:54.005Z,20.30
2019-05-18T10:55:22.401Z,19.57
2019-05-18T10:57:50.808Z,18.37
2019-05-18T11:00:19.080Z,19.03
2019-05-18T11:02:47.424Z,18.57
2019-05-18T11:05:15.737Z,16.13
2019-05-18T11:07:44.024Z,19.00
2019-05-18T11:10:12.344Z,19.57
2019-05-18T11:13:00.222Z,21.13
2019-05-18T11:15:28.480Z,20.13
2019-05-18T11:17:56.765Z,18.07
2019-05-18T11:20:26.749Z,18.67
2019-05-18T11:22:55.274Z,19.27
2019-05-18T11:25:23.536Z,18.33
2019-05-18T11:27:51.828Z,19.07
2019-05-18T11:30:20.967Z,20.47
2019-05-18T11:32:49.232Z,20.30
2019-05-18T11:35:18.851Z,19.30
2019-05-18T11:37:47.204Z,17.60
2019-05-18T11:40:15.473Z,20.23
2019-05-18T11:42:44.040Z,20.57
2019-05-18T11:45:12.654Z,18.03
2019-05-18T11:47:41.096Z,19.97
2019-05-18T11:50:09.547Z,19.90
2019-05-18T11:52:37.866Z,22.03
2019-05-18T11:55:06.602Z,23.17
2019-05-18T11:57:34.867Z,23.93
2019-05-18T12:00:03.706Z,23.70
2019-05-18T12:02:32.007Z,20.00
2019-05-18T12:05:00.337Z,24.47
2019-05-18T12:07:28.615Z,21.30
2019-05-18T12:09:56.901Z,19.00
2019-05-18T12:12:25.208Z,20.17
2019-05-18T12:14:53.563Z,19.73
2019-05-18T12:17:21.926Z,22.63
2019-05-18T12:19:50.234Z,25.13
2019-05-18T12:22:21.325Z,24.53
2019-05-18T12:24:49.964Z,22.90
2019-05-18T12:27:18.289Z,27.30
2019-05-18T12:29:46.707Z,20.70
2019-05-18T12:32:15.085Z,25.80
2019-05-18T12:34:45.251Z,26.30
2019-05-18T12:37:16.719Z,22.20
2019-05-18T12:39:45.001Z,23.90
2019-05-18T12:42:14.912Z,25.07
2019-05-18T12:44:46.007Z,25.83
2019-05-18T12:47:15.044Z,27.00
2019-05-18T12:49:43.344Z,31.43
2019-05-18T12:52:11.634Z,28.10
2019-05-18T12:54:46.662Z,27.27
2019-05-18T12:57:14.561Z,29.67
2019-05-18T12:59:55.635Z,30.63
2019-05-18T13:02:26.737Z,32.07
2019-05-18T13:04:54.992Z,28.50
2019-05-18T13:07:23.564Z,27.47
2019-05-18T13:09:51.843Z,32.87
2019-05-18T13:12:20.105Z,31.33
2019-05-18T13:14:48.384Z,35.07
2019-05-18T13:17:16.678Z,34.47
2019-05-18T13:19:44.948Z,35.57
2019-05-18T13:22:13.526Z,36.10
2019-05-18T13:24:45.186Z,34.33
2019-05-18T13:27:11.788Z,34.30
2019-05-18T13:29:40.145Z,36.30
2019-05-18T13:32:08.503Z,34.73
2019-05-18T13:34:36.768Z,36.57
2019-05-18T13:37:05.069Z,34.73
2019-05-18T13:39:33.509Z,32.97
2019-05-18T13:42:01.831Z,32.30
2019-05-18T13:44:30.100Z,33.87
2019-05-18T13:46:58.380Z,33.00
2019-05-18T13:49:27.650Z,34.27
2019-05-18T13:51:55.976Z,31.57
2019-05-18T13:54:24.268Z,32.80
2019-05-18T13:56:52.541Z,32.10
2019-05-18T13:59:20.799Z,32.70
2019-05-18T14:01:49.084Z,33.70
2019-05-18T14:04:17.340Z,33.33
2019-05-18T14:06:45.617Z,32.53
2019-05-18T14:09:13.998Z,31.50
2019-05-18T14:11:42.317Z,32.93
2019-05-18T14:14:12.157Z,29.67
2019-05-18T14:16:42.081Z,30.30
2019-05-18T14:19:11.519Z,33.00
2019-05-18T14:21:41.431Z,30.67
2019-05-18T14:24:12.819Z,32.60
2019-05-18T14:26:41.082Z,33.67
2019-05-18T14:29:11.101Z,31.93
2019-05-18T14:31:39.392Z,34.65
2019-05-18T14:34:07.751Z,32.15
2019-05-18T14:36:36.336Z,38.13
2019-05-18T14:39:05.763Z,33.20
2019-05-18T14:41:34.050Z,34.60
2019-05-18T14:44:03.509Z,34.90
2019-05-18T14:46:31.863Z,34.33
2019-05-18T14:49:00.119Z,34.07
2019-05-18T14:51:28.432Z,38.88
2019-05-18T14:53:56.757Z,38.17
2019-05-18T14:56:25.040Z,37.67
2019-05-18T14:58:54.033Z,38.75
2019-05-18T15:01:22.327Z,34.80
2019-05-18T15:03:50.665Z,33.80
2019-05-18T15:06:18.949Z,33.93
2019-05-18T15:08:47.232Z,32.40
2019-05-18T15:11:15.510Z,34.20
2019-05-18T15:13:43.772Z,32.03
2019-05-18T15:16:12.063Z,30.97
2019-05-18T15:18:40.342Z,32.97
2019-05-18T15:21:08.696Z,39.23
2019-05-18T15:23:37.010Z,36.40
2019-05-18T15:26:05.356Z,37.80
2019-05-18T15:28:33.632Z,34.17
2019-05-18T15:31:01.936Z,38.63
2019-05-18T15:33:30.206Z,34.70
2019-05-18T15:35:58.464Z,35.37
2019-05-18T15:38:26.757Z,36.60
2019-05-18T15:40:55.117Z,34.07
2019-05-18T15:43:23.399Z,33.47
2019-05-18T15:45:51.739Z,38.00
2019-05-18T15:48:20.015Z,40.95
2019-05-18T15:50:48.349Z,35.83
2019-05-18T15:53:16.638Z,35.53
2019-05-18T15:55:44.906Z,36.20
2019-05-18T15:58:13.257Z,35.70
2019-05-18T16:00:41.574Z,34.00
2019-05-18T16:03:09.907Z,35.00
2019-05-18T16:05:38.168Z,36.53
2019-05-18T16:08:06.565Z,35.07
2019-05-18T16:10:35.010Z,36.77
2019-05-18T16:13:03.443Z,34.70
2019-05-18T16:15:31.736Z,33.70
2019-05-18T16:17:59.996Z,33.63
2019-05-18T16:20:29.061Z,33.63
2019-05-18T16:22:58.997Z,32.17
2019-05-18T16:25:27.273Z,32.40
2019-05-18T16:27:55.636Z,31.90
2019-05-18T16:30:24.742Z,30.97
2019-05-18T16:32:53.140Z,31.77
2019-05-18T16:35:21.510Z,31.17
2019-05-18T16:37:49.801Z,31.17
2019-05-18T16:40:18.744Z,30.77
2019-05-18T16:42:47.183Z,28.27
2019-05-18T16:45:16.932Z,27.83
2019-05-18T16:47:45.211Z,26.57
2019-05-18T16:50:13.478Z,27.43
2019-05-18T16:52:41.768Z,27.00
2019-05-18T16:55:10.236Z,27.70
2019-05-18T16:57:38.663Z,26.83
2019-05-18T17:00:15.985Z,27.10
2019-05-18T17:02:43.162Z,26.80
2019-05-18T17:05:11.935Z,26.40
2019-05-18T17:07:40.286Z,26.67
2019-05-18T17:10:08.551Z,27.37
2019-05-18T17:12:36.979Z,27.63
2019-05-18T17:15:07.781Z,27.67
2019-05-18T17:17:36.317Z,27.90
2019-05-18T17:20:05.434Z,28.97
2019-05-18T17:22:33.781Z,28.90
2019-05-18T17:25:02.113Z,29.60
2019-05-18T17:27:30.445Z,28.33
2019-05-18T17:29:58.747Z,27.17
2019-05-18T17:32:27.004Z,27.67
2019-05-18T17:34:55.304Z,29.53
2019-05-18T17:37:23.641Z,30.33
2019-05-18T17:39:52.332Z,28.90
2019-05-18T17:42:28.506Z,29.83
2019-05-18T17:45:06.501Z,30.33
2019-05-18T17:47:49.363Z,29.17
2019-05-18T17:50:26.004Z,30.97
2019-05-18T17:53:01.396Z,30.20
2019-05-18T17:55:38.679Z,30.33
2019-05-18T17:58:34.593Z,30.20
2019-05-18T18:01:20.815Z,30.40
2019-05-18T18:03:50.821Z,31.17
2019-05-18T18:06:19.757Z,31.10
2019-05-18T18:08:48.040Z,30.97
2019-05-18T18:11:16.399Z,32.03
2019-05-18T18:13:44.671Z,29.37
2019-05-18T18:16:12.955Z,30.97
2019-05-18T18:18:41.222Z,29.67
2019-05-18T18:21:09.658Z,30.63
2019-05-18T18:23:37.976Z,29.07
2019-05-18T18:26:06.433Z,29.93
2019-05-18T18:28:35.110Z,31.30
2019-05-18T18:31:03.384Z,29.87
2019-05-18T18:33:31.652Z,31.03
2019-05-18T18:35:59.925Z,33.93
2019-05-18T18:38:29.117Z,33.57
2019-05-18T18:40:57.381Z,32.40
2019-05-18T18:43:25.965Z,34.23
2019-05-18T18:45:54.259Z,33.77
2019-05-18T18:48:22.607Z,34.20
2019-05-18T18:50:50.874Z,34.20
2019-05-18T18:53:19.151Z,32.73
2019-05-18T18:55:47.413Z,32.00
2019-05-18T18:58:15.675Z,33.23
2019-05-18T19:00:43.964Z,31.20
2019-05-18T19:03:12.219Z,29.93
2019-05-18T19:05:40.516Z,30.77
2019-05-18T19:08:08.796Z,32.87
2019-05-18T19:10:37.204Z,35.05
2019-05-18T19:13:05.485Z,31.60
2019-05-18T19:15:33.783Z,34.43
2019-05-18T19:18:02.058Z,32.00
2019-05-18T19:20:30.394Z,32.83
2019-05-18T19:22:58.745Z,33.90
2019-05-18T19:25:27.009Z,33.90
2019-05-18T19:27:55.520Z,35.37
2019-05-18T19:30:24.052Z,33.33
2019-05-18T19:32:52.365Z,32.47
2019-05-18T19:35:20.666Z,35.20
2019-05-18T19:37:48.962Z,33.77
2019-05-18T19:40:17.219Z,33.53
2019-05-18T19:42:45.496Z,35.10
2019-05-18T19:45:14.247Z,35.23
2019-05-18T19:47:45.968Z,34.67
2019-05-18T19:50:12.709Z,35.63
2019-05-18T19:52:40.985Z,36.07
2019-05-18T19:55:09.314Z,35.33
2019-05-18T19:57:37.585Z,39.20
2019-05-18T20:00:06.706Z,37.90
2019-05-18T20:02:35.043Z,35.23
2019-05-18T20:05:08.001Z,36.23
2019-05-18T20:07:34.078Z,35.70
2019-05-18T20:10:02.404Z,35.53
2019-05-18T20:12:30.682Z,36.60
2019-05-18T20:14:59.136Z,35.83
2019-05-18T20:17:27.414Z,35.27
2019-05-18T20:19:55.695Z,35.33
2019-05-18T20:22:23.984Z,41.20
2019-05-18T20:24:52.254Z,35.90
2019-05-18T20:27:20.528Z,36.80
2019-05-18T20:29:48.808Z,38.37
2019-05-18T20:32:17.157Z,37.17
2019-05-18T20:34:45.426Z,37.10
2019-05-18T20:37:13.905Z,37.43
2019-05-18T20:39:42.212Z,36.00
2019-05-18T20:42:10.491Z,37.87
2019-05-18T20:44:38.860Z,38.67
2019-05-18T20:47:07.122Z,39.30
2019-05-18T20:49:35.682Z,38.43
2019-05-18T20:52:04.040Z,37.87
2019-05-18T20:54:32.317Z,39.60
2019-05-18T20:57:00.594Z,38.30
2019-05-18T20:59:28.866Z,39.13
2019-05-18T21:01:57.123Z,38.53
2019-05-18T21:04:25.388Z,39.70
2019-05-18T21:06:53.682Z,40.03
2019-05-18T21:09:21.993Z,40.27
2019-05-18T21:11:50.607Z,38.40
2019-05-18T21:14:18.942Z,39.83
2019-05-18T21:16:47.285Z,41.27
2019-05-18T21:19:15.551Z,39.47
2019-05-18T21:21:43.911Z,40.40
2019-05-18T21:24:12.179Z,41.30
2019-05-18T21:26:40.443Z,41.10
2019-05-18T21:29:08.732Z,39.93
2019-05-18T21:31:37.004Z,41.03
2019-05-18T21:34:05.260Z,48.20
2019-05-18T21:36:33.624Z,40.97
2019-05-18T21:39:01.898Z,40.70
2019-05-18T21:41:30.242Z,40.57
2019-05-18T21:43:58.519Z,39.30
2019-05-18T21:46:26.784Z,41.63
2019-05-18T21:48:55.059Z,38.60
2019-05-18T21:51:23.483Z,41.57
2019-05-18T21:53:51.799Z,41.33
2019-05-18T21:56:20.062Z,42.00
2019-05-18T21:58:48.468Z,41.23
2019-05-18T22:01:16.732Z,43.60
2019-05-18T22:03:48.199Z,41.40
2019-05-18T22:06:15.035Z,42.27
2019-05-18T22:08:43.360Z,41.67
2019-05-18T22:11:11.633Z,41.20
2019-05-18T22:13:40.853Z,40.47
2019-05-18T22:16:09.119Z,40.07
2019-05-18T22:18:56.830Z,41.80
2019-05-18T22:21:25.121Z,39.97
2019-05-18T22:23:53.465Z,38.70
2019-05-18T22:26:21.739Z,41.63
2019-05-18T22:28:50.000Z,39.00
2019-05-18T22:31:19.733Z,39.40
2019-05-18T22:33:48.224Z,40.87
2019-05-18T22:36:16.496Z,41.00
2019-05-18T22:38:44.764Z,39.37
2019-05-18T22:41:13.049Z,40.13
2019-05-18T22:43:41.392Z,40.43
2019-05-18T22:46:09.659Z,39.33
2019-05-18T22:48:41.208Z,39.27
2019-05-18T22:51:08.001Z,39.60
2019-05-18T22:53:36.258Z,38.50
2019-05-18T22:56:04.652Z,40.97
2019-05-18T22:58:33.065Z,39.80
2019-05-18T23:01:01.324Z,40.57
2019-05-18T23:03:29.620Z,41.83
2019-05-18T23:05:57.872Z,42.87
2019-05-18T23:08:26.135Z,41.50
2019-05-18T23:10:54.471Z,42.93
2019-05-18T23:13:22.931Z,44.60
2019-05-18T23:15:51.232Z,43.57
2019-05-18T23:18:19.621Z,42.90
2019-05-18T23:20:47.911Z,42.83
2019-05-18T23:23:16.191Z,44.63
2019-05-18T23:25:44.564Z,42.07
2019-05-18T23:28:12.981Z,44.60
2019-05-18T23:30:41.317Z,45.33
2019-05-18T23:33:09.605Z,45.53
2019-05-18T23:35:37.871Z,46.07
2019-05-18T23:38:06.146Z,44.80
2019-05-18T23:40:34.504Z,46.03
2019-05-18T23:43:02.767Z,45.47
2019-05-18T23:45:31.041Z,46.23
2019-05-18T23:47:59.651Z,46.10
2019-05-18T23:50:28.260Z,46.70
2019-05-18T23:52:56.532Z,46.70
2019-05-18T23:55:24.824Z,45.17
2019-05-18T23:57:53.101Z,45.93
